Time;durP1;ratioP1;P1;durP2;ratioP2;P2;SDS_P1;SDS_P2;PMS_P1;PMS_P2;Temp;Humidity;BMP_temperature;BMP_pressure;BME280_temperature;BME280_humidity;BME280_pressure;Samples;Min_cycle;Max_cycle;Signal;HPM_P1;HPM_P2
2021/07/14 00:02:02;;;;;;;1.35;1.25;;;27.70;70.40;;;;;;5104518;28;20028;-42
2021/07/14 00:04:28;;;;;;;1.30;1.13;;;27.70;70.30;;;;;;5104583;28;20103;-43
2021/07/14 00:06:54;;;;;;;1.73;1.10;;;27.70;70.30;;;;;;5104402;28;20035;-42
2021/07/14 00:09:21;;;;;;;1.40;1.03;;;27.70;70.30;;;;;;5104231;28;20735;-42
2021/07/14 00:11:56;;;;;;;1.73;1.20;;;27.70;70.30;;;;;;5104567;28;20028;-41
2021/07/14 00:22:29;;;;;;;2.15;1.27;;;27.70;70.40;;;;;;5104391;28;20046;-41
2021/07/14 00:24:55;;;;;;;1.33;1.05;;;27.70;70.50;;;;;;5104153;28;20099;-42
2021/07/14 00:27:23;;;;;;;1.30;1.20;;;27.70;70.50;;;;;;5103885;28;20433;-41
2021/07/14 00:29:52;;;;;;;1.52;1.13;;;27.70;70.50;;;;;;5085993;28;20373;-41
2021/07/14 00:32:19;;;;;;;1.08;1.00;;;27.70;70.50;;;;;;5103832;28;20052;-42
2021/07/14 00:34:45;;;;;;;2.00;1.30;;;27.60;70.50;;;;;;5104053;28;20028;-42
2021/07/14 00:37:11;;;;;;;1.95;1.50;;;27.70;70.50;;;;;;5103650;28;20023;-41
2021/07/14 00:39:37;;;;;;;1.27;1.17;;;27.60;70.50;;;;;;5093555;28;20157;-42
2021/07/14 00:42:05;;;;;;;2.23;1.13;;;27.60;70.50;;;;;;5088005;28;20024;-41
2021/07/14 00:44:32;;;;;;;1.20;1.00;;;27.60;70.60;;;;;;5103787;28;20322;-43
2021/07/14 00:47:02;;;;;;;1.20;1.10;;;27.60;70.50;;;;;;5103895;28;20028;-41
2021/07/14 00:49:29;;;;;;;1.85;1.15;;;27.60;70.50;;;;;;5069046;28;20456;-41
2021/07/14 00:51:55;;;;;;;1.75;1.63;;;27.60;70.50;;;;;;5085292;28;20024;-41
2021/07/14 00:54:21;;;;;;;1.77;1.10;;;27.60;70.50;;;;;;5085383;28;20064;-41
2021/07/14 00:56:48;;;;;;;1.33;1.17;;;27.60;70.50;;;;;;5103837;28;20120;-42
2021/07/14 00:59:14;;;;;;;1.50;1.38;;;27.60;70.60;;;;;;5084831;28;20032;-42
2021/07/14 01:01:43;;;;;;;1.13;1.02;;;27.60;70.60;;;;;;5102619;28;20036;-42
2021/07/14 01:04:26;;;;;;;1.60;1.13;;;27.60;70.50;;;;;;5085592;28;20125;-41
2021/07/14 01:07:15;;;;;;;1.70;1.10;;;27.50;70.50;;;;;;5085087;28;20028;-41
2021/07/14 01:10:09;;;;;;;2.50;1.10;;;27.50;70.50;;;;;;5085193;28;20553;-42
2021/07/14 01:12:59;;;;;;;1.13;1.00;;;27.50;70.50;;;;;;5103348;28;20028;-41
2021/07/14 01:15:27;;;;;;;1.30;1.08;;;27.50;70.50;;;;;;5103230;28;20040;-42
2021/07/14 01:18:12;;;;;;;1.10;1.10;;;27.50;70.60;;;;;;5068691;28;20040;-42
2021/07/14 01:20:56;;;;;;;1.83;1.40;;;27.50;70.60;;;;;;5103336;28;20020;-43
2021/07/14 01:23:36;;;;;;;1.73;1.20;;;27.50;70.50;;;;;;5102927;28;20035;-41
2021/07/14 01:26:21;;;;;;;1.42;1.17;;;27.40;70.50;;;;;;5084931;28;20160;-41
2021/07/14 01:28:48;;;;;;;1.17;1.08;;;27.40;70.60;;;;;;5102667;28;20024;-42
2021/07/14 01:31:17;;;;;;;1.40;1.25;;;27.40;70.60;;;;;;5084874;28;20030;-42
2021/07/14 01:33:43;;;;;;;2.00;1.13;;;27.40;70.50;;;;;;5068241;28;20082;-41
2021/07/14 01:36:14;;;;;;;1.10;1.00;;;27.40;70.50;;;;;;5068375;28;20035;-43
2021/07/14 01:38:41;;;;;;;1.20;1.08;;;27.40;70.60;;;;;;5102774;28;20035;-42
2021/07/14 01:41:08;;;;;;;1.38;1.27;;;27.40;71.40;;;;;;5085171;28;20035;-42
2021/07/14 01:43:39;;;;;;;2.05;1.17;;;27.40;70.60;;;;;;5080899;28;20028;-41
2021/07/14 01:46:06;;;;;;;2.97;1.23;;;27.40;70.70;;;;;;5084781;28;20036;-41
2021/07/14 01:48:33;;;;;;;1.67;1.20;;;27.40;70.70;;;;;;5102837;28;20123;-41
2021/07/14 01:51:00;;;;;;;1.13;0.98;;;27.40;70.70;;;;;;5085034;28;20111;-42
2021/07/14 01:53:26;;;;;;;2.07;1.10;;;27.30;70.60;;;;;;5084724;28;20020;-42
2021/07/14 01:55:52;;;;;;;1.40;1.17;;;27.30;70.60;;;;;;5084823;28;20099;-41
2021/07/14 01:58:18;;;;;;;1.35;1.17;;;27.30;71.00;;;;;;5067975;28;20024;-41
2021/07/14 02:00:45;;;;;;;3.17;1.10;;;27.40;70.70;;;;;;5084521;28;20032;-42
2021/07/14 02:05:52;;;;;;;1.98;1.02;;;27.30;70.70;;;;;;5072369;28;20132;-42
2021/07/14 02:08:18;;;;;;;1.57;1.10;;;27.30;70.70;;;;;;5084387;28;20024;-41
2021/07/14 02:10:44;;;;;;;1.83;1.20;;;27.30;70.70;;;;;;5102594;28;20046;-43
2021/07/14 02:13:11;;;;;;;2.33;1.30;;;27.30;70.70;;;;;;5105019;28;20028;-41
2021/07/14 02:15:37;;;;;;;1.13;1.02;;;27.20;70.60;;;;;;5088687;28;20079;-42
2021/07/14 02:18:07;;;;;;;2.13;1.10;;;27.30;70.70;;;;;;5072137;28;20049;-42
2021/07/14 02:20:33;;;;;;;0.80;0.80;;;27.20;70.60;;;;;;5071834;28;20042;-41
2021/07/14 02:23:01;;;;;;;1.80;1.00;;;27.20;70.70;;;;;;5106349;28;20024;-41
2021/07/14 02:25:27;;;;;;;2.40;1.08;;;27.20;70.70;;;;;;5088843;28;20070;-42
2021/07/14 02:27:53;;;;;;;1.70;1.07;;;27.20;70.60;;;;;;5106523;28;20039;-41
2021/07/14 02:30:21;;;;;;;1.90;1.35;;;27.20;70.70;;;;;;5106455;28;20038;-42
2021/07/14 02:32:55;;;;;;;1.25;0.98;;;27.20;70.70;;;;;;5088304;28;20044;-42
2021/07/14 02:35:23;;;;;;;1.30;1.10;;;27.20;70.70;;;;;;5088136;28;20027;-41
2021/07/14 02:38:01;;;;;;;1.08;0.85;;;27.10;70.60;;;;;;5071457;28;20028;-41
2021/07/14 02:40:51;;;;;;;1.55;1.10;;;27.10;70.60;;;;;;5106040;28;20032;-42
2021/07/14 02:43:25;;;;;;;1.42;1.20;;;27.10;70.60;;;;;;5106122;28;20032;-41
2021/07/14 02:45:51;;;;;;;1.92;1.30;;;27.10;70.60;;;;;;5089231;28;20044;-42
2021/07/14 02:48:18;;;;;;;0.88;0.88;;;27.10;70.60;;;;;;5088408;28;20034;-40
2021/07/14 02:50:44;;;;;;;0.95;0.90;;;27.10;70.60;;;;;;5071131;28;20024;-42
2021/07/14 02:53:13;;;;;;;1.53;1.03;;;27.10;70.60;;;;;;5087876;28;20104;-42
2021/07/14 02:55:40;;;;;;;1.75;1.08;;;27.10;70.60;;;;;;5105882;28;20039;-42
2021/07/14 02:58:07;;;;;;;1.70;1.30;;;27.10;70.60;;;;;;5088006;28;20079;-42
2021/07/14 03:00:33;;;;;;;1.50;1.10;;;27.00;70.40;;;;;;5106040;28;20024;-41
2021/07/14 03:02:59;;;;;;;1.23;1.00;;;27.00;70.40;;;;;;5070944;28;20032;-42
2021/07/14 03:05:28;;;;;;;1.27;0.98;;;27.00;70.40;;;;;;5087894;28;20085;-42
2021/07/14 03:07:55;;;;;;;2.03;0.98;;;27.00;70.30;;;;;;5087701;28;20024;-43
2021/07/14 03:10:21;;;;;;;1.47;1.17;;;27.00;70.30;;;;;;5087437;28;20021;-41
2021/07/14 03:12:50;;;;;;;1.95;1.00;;;27.00;70.40;;;;;;5105707;28;20056;-41
2021/07/14 03:15:17;;;;;;;1.10;1.00;;;27.00;70.40;;;;;;5105584;28;20036;-42
2021/07/14 03:17:43;;;;;;;1.60;1.10;;;27.00;70.40;;;;;;5087597;28;20039;-42
2021/07/14 03:20:11;;;;;;;1.45;1.10;;;26.90;70.40;;;;;;5070415;28;20504;-41
2021/07/14 03:22:38;;;;;;;1.17;1.08;;;26.90;70.40;;;;;;5086982;28;20012;-43
2021/07/14 03:25:05;;;;;;;1.20;1.10;;;26.90;70.40;;;;;;5086225;28;20040;-42
2021/07/14 03:27:31;;;;;;;;;;;26.90;70.40;;;;;;5087636;28;20032;-41
2021/07/14 03:29:58;;;;;;;1.80;1.20;;;26.90;70.40;;;;;;5105260;28;19908;-42
2021/07/14 03:32:24;;;;;;;1.37;1.20;;;26.90;70.40;;;;;;5105319;28;20048;-43
2021/07/14 03:34:52;;;;;;;2.15;1.10;;;26.80;70.40;;;;;;5087084;28;20085;-41
2021/07/14 03:37:19;;;;;;;1.25;1.15;;;26.80;70.30;;;;;;5086711;28;20043;-43
2021/07/14 03:39:45;;;;;;;1.42;0.93;;;26.80;70.40;;;;;;5105227;28;20020;-43
2021/07/14 03:42:14;;;;;;;2.63;1.07;;;26.80;70.30;;;;;;5086588;28;20039;-42
2021/07/14 03:44:40;;;;;;;3.92;1.20;;;26.80;70.40;;;;;;5087294;28;20036;-42
2021/07/14 03:47:07;;;;;;;1.83;0.80;;;26.80;70.30;;;;;;5105032;28;20428;-42
2021/07/14 03:49:33;;;;;;;1.42;1.00;;;26.80;70.30;;;;;;5086734;28;20024;-41
2021/07/14 03:51:59;;;;;;;1.17;1.10;;;26.70;70.10;;;;;;5086459;28;20028;-43
2021/07/14 03:54:27;;;;;;;2.75;1.30;;;26.80;70.20;;;;;;5069728;28;20750;-43
2021/07/14 03:56:54;;;;;;;1.98;1.17;;;26.70;70.30;;;;;;5104715;28;20107;-41
2021/07/14 03:59:20;;;;;;;1.02;0.90;;;26.70;70.10;;;;;;5086534;28;20028;-42
2021/07/14 04:01:47;;;;;;;3.10;1.23;;;26.70;70.20;;;;;;5086390;28;20039;-41
2021/07/14 04:04:13;;;;;;;1.10;1.00;;;26.70;70.00;;;;;;5104685;28;20051;-42
2021/07/14 04:06:39;;;;;;;2.72;1.20;;;26.70;70.00;;;;;;5086470;28;20024;-41
2021/07/14 04:09:06;;;;;;;2.10;1.30;;;26.70;70.10;;;;;;5086287;28;20081;-41
2021/07/14 04:11:32;;;;;;;1.20;1.10;;;26.70;70.00;;;;;;5104249;28;20035;-42
2021/07/14 04:13:58;;;;;;;4.10;1.13;;;26.70;70.00;;;;;;5086109;28;20641;-43
2021/07/14 04:16:24;;;;;;;1.00;1.00;;;26.70;70.00;;;;;;5104515;28;20035;-43
2021/07/14 04:18:50;;;;;;;2.53;0.90;;;26.70;70.00;;;;;;5104289;28;20034;-41
2021/07/14 04:21:16;;;;;;;2.38;1.35;;;26.70;70.20;;;;;;5104027;28;20024;-43
2021/07/14 04:23:42;;;;;;;1.08;0.90;;;26.70;70.00;;;;;;5103906;28;20064;-42
2021/07/14 04:26:08;;;;;;;3.53;1.30;;;26.60;70.10;;;;;;5104277;28;20087;-43
2021/07/14 04:28:35;;;;;;;3.15;1.02;;;26.60;70.10;;;;;;5104194;28;20031;-42
2021/07/14 04:31:01;;;;;;;1.60;1.10;;;26.60;70.80;;;;;;5103929;28;20031;-42
2021/07/14 04:33:27;;;;;;;1.92;1.00;;;26.60;70.20;;;;;;5103885;28;20040;-43
2021/07/14 04:35:53;;;;;;;1.80;1.30;;;26.60;70.20;;;;;;5103842;28;20048;-42
2021/07/14 04:38:21;;;;;;;1.73;1.07;;;26.60;70.10;;;;;;5103969;28;20031;-42
2021/07/14 04:40:47;;;;;;;1.38;1.00;;;26.50;70.10;;;;;;5103965;28;20083;-41
2021/07/14 04:43:13;;;;;;;1.60;1.07;;;26.50;70.10;;;;;;5103468;28;20043;-41
2021/07/14 04:45:39;;;;;;;1.33;1.10;;;26.50;70.30;;;;;;5103884;28;20127;-42
2021/07/14 04:48:08;;;;;;;1.92;1.17;;;26.50;70.10;;;;;;5103303;28;20023;-41
2021/07/14 04:50:35;;;;;;;2.97;1.10;;;26.50;70.00;;;;;;5103681;28;20863;-41
2021/07/14 04:53:01;;;;;;;3.08;1.10;;;26.50;70.00;;;;;;5103493;28;20027;-42
2021/07/14 04:55:27;;;;;;;1.67;1.17;;;26.40;69.90;;;;;;5103710;28;20032;-41
2021/07/14 04:57:53;;;;;;;2.13;1.27;;;26.40;69.90;;;;;;5103481;28;20064;-42
2021/07/14 05:00:20;;;;;;;1.40;1.00;;;26.50;69.70;;;;;;5103710;28;20567;-43
2021/07/14 05:02:46;;;;;;;1.67;0.90;;;26.40;69.70;;;;;;5103430;28;20087;-42
2021/07/14 05:05:17;;;;;;;1.83;1.00;;;26.40;69.70;;;;;;5103514;28;20047;-41
2021/07/14 05:07:44;;;;;;;2.28;1.27;;;26.40;69.70;;;;;;5103020;28;20275;-41
2021/07/14 05:10:11;;;;;;;1.58;1.08;;;26.40;69.70;;;;;;5103234;28;20040;-43
2021/07/14 05:12:37;;;;;;;2.63;0.90;;;26.40;69.80;;;;;;5103274;28;20059;-43
2021/07/14 05:15:04;;;;;;;1.58;1.08;;;26.40;69.90;;;;;;5103569;28;20027;-42
2021/07/14 05:17:30;;;;;;;1.40;1.02;;;26.30;69.90;;;;;;5103105;28;20042;-43
2021/07/14 05:19:56;;;;;;;2.33;1.40;;;26.30;70.00;;;;;;5103111;28;20020;-42
2021/07/14 05:22:23;;;;;;;1.10;0.90;;;26.30;70.00;;;;;;5085004;28;20114;-43
2021/07/14 05:24:50;;;;;;;3.15;1.10;;;26.30;69.90;;;;;;5102938;28;20075;-42
2021/07/14 05:27:16;;;;;;;2.33;0.93;;;26.30;69.90;;;;;;5103249;28;20031;-41
2021/07/14 05:29:42;;;;;;;3.50;1.17;;;26.30;70.00;;;;;;5084760;28;20048;-43
2021/07/14 05:32:08;;;;;;;1.42;1.00;;;26.30;69.90;;;;;;5102888;28;20031;-41
2021/07/14 05:34:34;;;;;;;1.60;1.00;;;26.30;70.50;;;;;;5102997;28;20040;-42
2021/07/14 05:37:00;;;;;;;1.95;1.30;;;26.20;69.60;;;;;;5103039;28;20016;-42
2021/07/14 05:39:27;;;;;;;3.00;1.10;;;26.20;69.70;;;;;;5102746;28;20046;-42
2021/07/14 05:41:53;;;;;;;1.30;1.08;;;26.20;69.70;;;;;;5102866;28;20035;-43
2021/07/14 05:44:19;;;;;;;1.60;1.07;;;26.20;69.80;;;;;;5102917;28;20476;-41
2021/07/14 05:46:45;;;;;;;2.27;1.30;;;26.20;69.70;;;;;;5102538;28;20024;-43
2021/07/14 05:49:11;;;;;;;1.45;1.13;;;26.20;69.70;;;;;;5102564;28;20023;-42
2021/07/14 05:51:38;;;;;;;1.90;1.00;;;26.20;70.40;;;;;;5102532;28;20048;-41
2021/07/14 05:54:04;;;;;;;3.37;1.20;;;26.10;69.60;;;;;;5102705;28;20040;-43
2021/07/14 05:56:30;;;;;;;1.52;1.30;;;26.10;69.60;;;;;;5103046;28;20035;-41
2021/07/14 05:58:56;;;;;;;1.17;1.07;;;26.10;69.70;;;;;;5102528;28;20039;-42
2021/07/14 06:01:22;;;;;;;1.67;1.33;;;26.10;69.70;;;;;;5102817;28;20052;-42
2021/07/14 06:03:49;;;;;;;3.03;0.98;;;26.10;69.70;;;;;;5102706;28;20782;-41
2021/07/14 06:06:17;;;;;;;2.65;1.23;;;26.10;69.70;;;;;;5102697;28;20508;-43
2021/07/14 06:08:43;;;;;;;1.38;0.95;;;26.10;69.80;;;;;;5102500;28;20025;-43
2021/07/14 06:11:10;;;;;;;2.67;1.00;;;26.10;69.70;;;;;;5102706;28;20020;-42
2021/07/14 06:13:36;;;;;;;1.83;1.02;;;26.00;69.60;;;;;;5102554;28;20055;-41
2021/07/14 06:16:02;;;;;;;1.47;1.00;;;26.00;69.60;;;;;;5102652;28;20048;-43
2021/07/14 06:18:28;;;;;;;1.30;1.15;;;26.00;69.70;;;;;;5102409;28;20038;-41
2021/07/14 06:20:54;;;;;;;2.00;1.00;;;26.00;69.60;;;;;;5102708;28;20028;-41
2021/07/14 06:23:20;;;;;;;2.97;1.05;;;26.00;69.70;;;;;;5102108;28;20067;-42
2021/07/14 06:25:47;;;;;;;3.00;1.10;;;26.00;69.70;;;;;;5102625;28;20028;-41
2021/07/14 06:28:13;;;;;;;1.95;0.95;;;26.00;69.70;;;;;;5102513;28;20027;-42
2021/07/14 06:30:48;;;;;;;1.60;0.93;;;26.00;69.70;;;;;;5102430;28;20032;-41
2021/07/14 06:33:14;;;;;;;1.50;1.02;;;25.90;69.60;;;;;;5102384;28;20044;-42
2021/07/14 06:35:41;;;;;;;1.13;1.00;;;25.90;69.70;;;;;;5084117;28;20020;-42
2021/07/14 06:38:08;;;;;;;1.08;1.00;;;25.90;69.60;;;;;;5102539;28;20036;-41
2021/07/14 06:40:37;;;;;;;2.28;1.08;;;25.90;69.70;;;;;;5102063;28;20028;-42
2021/07/14 06:43:06;;;;;;;1.10;1.00;;;25.90;69.70;;;;;;5102147;28;20496;-42
2021/07/14 06:45:32;;;;;;;1.92;1.13;;;25.90;69.70;;;;;;5084490;28;20106;-43
2021/07/14 06:47:58;;;;;;;1.80;1.00;;;25.90;69.70;;;;;;5084420;28;20673;-42
2021/07/14 06:50:24;;;;;;;2.55;1.13;;;25.80;69.60;;;;;;5102173;28;20084;-41
2021/07/14 06:52:50;;;;;;;3.90;1.20;;;25.80;69.60;;;;;;5101915;28;20028;-45
2021/07/14 06:55:16;;;;;;;1.73;1.10;;;25.80;69.70;;;;;;5102449;28;20102;-43
2021/07/14 06:57:44;;;;;;;2.47;1.20;;;25.80;69.70;;;;;;5102448;28;20032;-42
2021/07/14 07:00:11;;;;;;;1.65;1.10;;;25.80;69.70;;;;;;5104302;28;20096;-41
2021/07/14 07:02:38;;;;;;;1.40;1.00;;;25.80;69.70;;;;;;5087675;28;20027;-42
2021/07/14 07:05:04;;;;;;;2.57;1.00;;;25.80;69.80;;;;;;5105768;28;20066;-42
2021/07/14 07:07:31;;;;;;;1.40;0.95;;;25.80;69.90;;;;;;5105733;28;20031;-42
2021/07/14 07:09:57;;;;;;;1.20;1.10;;;25.80;69.80;;;;;;5105529;28;20054;-43
2021/07/14 07:12:23;;;;;;;3.22;1.42;;;25.80;70.50;;;;;;5105623;28;20042;-42
2021/07/14 07:14:49;;;;;;;1.30;1.00;;;25.70;69.80;;;;;;5106037;28;20445;-41
2021/07/14 07:17:15;;;;;;;0.90;0.90;;;25.70;70.40;;;;;;5105606;28;20032;-43
2021/07/14 07:19:41;;;;;;;2.15;1.08;;;25.70;69.70;;;;;;5105453;28;20016;-42
2021/07/14 07:22:08;;;;;;;1.33;1.08;;;25.70;69.80;;;;;;5105610;28;20024;-41
2021/07/14 07:24:34;;;;;;;1.30;0.98;;;25.70;69.80;;;;;;5105389;28;20078;-43
2021/07/14 07:27:00;;;;;;;1.70;1.10;;;25.70;69.80;;;;;;5105393;28;20081;-42
2021/07/14 07:29:26;;;;;;;0.70;0.70;;;25.70;69.80;;;;;;5105477;28;20028;-42
2021/07/14 07:31:52;;;;;;;1.55;1.00;;;25.70;69.90;;;;;;5087169;28;20024;-42
2021/07/14 07:34:19;;;;;;;1.73;1.13;;;25.60;69.70;;;;;;5105695;28;20044;-43
2021/07/14 07:36:46;;;;;;;1.75;1.05;;;25.60;69.70;;;;;;5105108;28;20032;-42
2021/07/14 07:39:13;;;;;;;1.55;1.05;;;25.60;69.80;;;;;;5104937;28;20036;-42
2021/07/14 07:41:39;;;;;;;2.25;1.10;;;25.60;69.80;;;;;;5104921;28;20023;-43
2021/07/14 07:44:06;;;;;;;1.83;1.38;;;25.60;69.80;;;;;;5105116;28;20032;-41
2021/07/14 07:46:33;;;;;;;1.33;1.00;;;25.60;69.80;;;;;;5105153;28;20028;-43
2021/07/14 07:48:59;;;;;;;1.40;0.98;;;25.60;69.90;;;;;;5104937;28;20024;-41
2021/07/14 07:51:25;;;;;;;0.90;0.90;;;25.60;69.90;;;;;;5104686;28;20118;-42
2021/07/14 07:53:53;;;;;;;1.60;1.20;;;25.60;69.90;;;;;;5104808;28;20023;-42
2021/07/14 07:56:19;;;;;;;1.58;1.13;;;25.60;69.90;;;;;;5104817;28;20032;-42
2021/07/14 07:58:45;;;;;;;2.27;1.10;;;25.60;69.90;;;;;;5104722;28;20484;-42
2021/07/14 08:01:12;;;;;;;1.20;1.10;;;25.50;69.80;;;;;;5104589;28;20286;-41
2021/07/14 08:03:38;;;;;;;1.10;1.00;;;25.50;69.90;;;;;;5104759;28;20277;-42
2021/07/14 08:06:04;;;;;;;2.47;1.30;;;25.50;69.90;;;;;;5104485;28;20036;-41
2021/07/14 08:08:30;;;;;;;1.37;1.00;;;25.50;69.90;;;;;;5104481;28;20024;-41
2021/07/14 08:10:57;;;;;;;2.83;1.20;;;25.50;69.90;;;;;;5085486;28;20046;-42
2021/07/14 08:13:24;;;;;;;1.13;1.02;;;25.50;70.00;;;;;;5104736;28;20034;-42
2021/07/14 08:15:50;;;;;;;;;;;25.50;70.00;;;;;;5105092;28;20092;-42
2021/07/14 08:18:16;;;;;;;1.52;0.90;;;25.50;69.90;;;;;;5104492;28;20652;-41
2021/07/14 08:20:42;;;;;;;2.45;1.30;;;25.40;70.00;;;;;;5104161;28;20028;-43
2021/07/14 08:23:10;;;;;;;3.08;1.10;;;25.40;69.90;;;;;;5085830;28;20039;-42
2021/07/14 08:25:36;;;;;;;3.03;1.25;;;25.40;70.00;;;;;;5103812;28;20040;-42
2021/07/14 08:28:02;;;;;;;1.75;1.13;;;25.40;70.00;;;;;;5083934;28;20074;-42
2021/07/14 08:30:29;;;;;;;2.45;1.10;;;25.40;70.00;;;;;;5083774;28;20028;-42
2021/07/14 08:32:55;;;;;;;2.03;1.13;;;25.40;70.00;;;;;;5083845;28;20087;-42
2021/07/14 08:35:21;;;;;;;1.40;1.10;;;25.40;70.00;;;;;;5083841;28;20092;-42
2021/07/14 08:37:47;;;;;;;5.13;1.30;;;25.40;70.00;;;;;;5083622;28;20020;-43
2021/07/14 08:40:14;;;;;;;1.80;1.10;;;25.30;70.00;;;;;;5098883;28;20177;-42
2021/07/14 08:42:42;;;;;;;5.07;1.30;;;25.30;70.00;;;;;;5103877;28;20789;-43
2021/07/14 08:45:11;;;;;;;1.42;1.10;;;25.30;70.00;;;;;;5104033;28;20138;-42
2021/07/14 08:47:38;;;;;;;1.42;0.93;;;25.30;70.00;;;;;;5085773;28;20031;-43
2021/07/14 08:50:06;;;;;;;1.50;1.30;;;25.30;70.00;;;;;;5103555;28;20036;-43
2021/07/14 08:52:33;;;;;;;1.52;1.05;;;25.30;70.10;;;;;;5085309;28;20042;-41
2021/07/14 08:54:59;;;;;;;1.33;1.23;;;25.30;70.10;;;;;;5103732;28;20024;-42
2021/07/14 08:57:25;;;;;;;1.43;1.20;;;25.30;70.20;;;;;;5103691;28;20091;-42
2021/07/14 08:59:51;;;;;;;1.42;1.05;;;25.30;70.10;;;;;;5085148;28;20028;-42
2021/07/14 09:02:17;;;;;;;1.40;1.05;;;25.20;70.10;;;;;;5103607;28;20024;-41
2021/07/14 09:04:44;;;;;;;1.10;1.00;;;25.20;70.20;;;;;;5103597;28;20043;-42
2021/07/14 09:07:10;;;;;;;1.13;1.02;;;25.20;70.20;;;;;;5103458;28;20032;-42
2021/07/14 09:09:37;;;;;;;2.50;1.17;;;25.20;70.10;;;;;;5084980;28;20635;-43
2021/07/14 09:12:08;;;;;;;2.63;1.10;;;25.20;70.10;;;;;;5103204;28;20024;-41
2021/07/14 09:14:39;;;;;;;2.97;1.13;;;25.20;70.20;;;;;;5103484;28;20107;-43
2021/07/14 09:17:22;;;;;;;1.17;0.98;;;25.20;70.20;;;;;;5103434;28;20016;-42
2021/07/14 09:20:22;;;;;;;1.52;1.08;;;25.20;70.30;;;;;;5103427;28;20063;-42
2021/07/14 09:22:48;;;;;;;3.70;1.00;;;25.20;70.20;;;;;;5101904;28;20047;-42
2021/07/14 09:25:16;;;;;;;1.92;1.08;;;25.20;70.20;;;;;;5084719;28;20051;-42
2021/07/14 09:27:53;;;;;;;1.38;1.02;;;25.10;70.10;;;;;;5103171;28;20020;-41
2021/07/14 09:30:21;;;;;;;1.10;1.00;;;25.10;70.20;;;;;;5103182;28;20091;-43
2021/07/14 09:32:57;;;;;;;1.50;1.15;;;25.10;70.20;;;;;;5102533;28;20052;-43
2021/07/14 09:35:24;;;;;;;1.48;1.15;;;25.10;70.30;;;;;;5103167;28;20028;-42
2021/07/14 09:37:50;;;;;;;1.60;1.15;;;25.10;70.30;;;;;;5102917;28;20483;-43
2021/07/14 09:40:17;;;;;;;1.17;0.98;;;25.10;70.30;;;;;;5102652;28;20032;-42
2021/07/14 09:42:56;;;;;;;2.58;1.13;;;25.10;70.30;;;;;;5102919;28;20031;-43
2021/07/14 09:45:42;;;;;;;2.35;1.00;;;25.10;70.30;;;;;;5102830;28;20046;-42
2021/07/14 09:48:09;;;;;;;1.45;1.00;;;25.00;70.20;;;;;;5102580;28;20020;-41
2021/07/14 09:50:53;;;;;;;1.67;1.23;;;25.00;70.20;;;;;;5084874;28;20036;-43
2021/07/14 09:53:20;;;;;;;2.97;1.48;;;25.00;70.30;;;;;;5102371;28;20032;-42
2021/07/14 09:55:50;;;;;;;;;;;25.00;70.30;;;;;;5103488;28;20024;-42
2021/07/14 09:58:24;;;;;;;1.30;1.00;;;25.00;70.30;;;;;;5102865;28;19904;-41
2021/07/14 10:00:55;;;;;;;2.13;1.13;;;25.00;70.40;;;;;;5102727;28;20054;-43
2021/07/14 10:03:26;;;;;;;1.48;1.00;;;25.00;70.40;;;;;;5102594;28;20094;-42
2021/07/14 10:06:09;;;;;;;1.85;1.10;;;25.00;70.40;;;;;;5102666;28;20061;-44
2021/07/14 10:08:39;;;;;;;2.03;1.30;;;25.00;70.40;;;;;;5102574;28;20108;-43
2021/07/14 10:11:14;;;;;;;6.07;1.33;;;24.90;70.40;;;;;;5084317;28;20035;-41
2021/07/14 10:13:59;;;;;;;1.95;1.30;;;24.90;70.40;;;;;;5102552;28;20020;-42
2021/07/14 10:16:39;;;;;;;1.83;1.40;;;24.90;70.40;;;;;;5102403;28;20046;-42
2021/07/14 10:19:10;;;;;;;1.15;1.05;;;24.90;70.40;;;;;;5102603;28;20024;-41
2021/07/14 10:21:44;;;;;;;1.70;1.10;;;24.90;70.40;;;;;;5084250;28;20032;-43
2021/07/14 10:24:12;;;;;;;1.60;1.10;;;24.90;70.40;;;;;;5101987;28;20609;-41
2021/07/14 10:26:40;;;;;;;1.80;1.20;;;24.90;70.50;;;;;;5102589;28;20046;-42
2021/07/14 10:29:07;;;;;;;2.75;1.20;;;24.90;70.50;;;;;;5102677;28;20488;-42
2021/07/14 10:31:33;;;;;;;3.17;1.10;;;24.80;70.40;;;;;;5099487;28;20063;-43
2021/07/14 10:34:00;;;;;;;2.20;1.23;;;24.80;70.40;;;;;;5085890;28;20115;-43
2021/07/14 10:36:28;;;;;;;2.30;1.10;;;24.80;70.40;;;;;;5088172;28;20098;-43
2021/07/14 10:38:58;;;;;;;2.03;1.10;;;24.80;70.40;;;;;;5106206;28;20050;-43
2021/07/14 10:41:29;;;;;;;2.22;1.40;;;24.80;70.50;;;;;;5121704;28;20024;-43
2021/07/14 10:43:55;;;;;;;1.50;1.08;;;24.80;70.50;;;;;;5085829;28;20036;-41
2021/07/14 10:46:23;;;;;;;1.40;1.30;;;24.80;70.60;;;;;;5085993;28;20076;-43
2021/07/14 10:48:51;;;;;;;1.67;1.23;;;24.80;70.60;;;;;;5085868;28;20273;-41
2021/07/14 10:51:17;;;;;;;1.77;1.30;;;24.80;70.50;;;;;;5105009;28;20039;-42
2021/07/14 10:53:46;;;;;;;1.52;1.23;;;24.80;70.50;;;;;;5105715;28;20027;-42
2021/07/14 10:56:13;;;;;;;1.75;1.13;;;24.80;70.60;;;;;;5087792;28;20034;-42
2021/07/14 10:58:39;;;;;;;1.77;1.40;;;24.70;70.60;;;;;;5087714;28;20034;-43
2021/07/14 11:01:05;;;;;;;2.72;1.33;;;24.70;70.60;;;;;;5105998;28;20035;-42
2021/07/14 11:03:36;;;;;;;1.77;1.17;;;24.70;70.60;;;;;;5105787;28;20036;-43
2021/07/14 11:06:05;;;;;;;1.85;1.33;;;24.70;70.60;;;;;;5106027;28;20036;-42
2021/07/14 11:08:48;;;;;;;3.40;1.20;;;24.70;70.60;;;;;;5105644;28;20020;-41
2021/07/14 11:11:21;;;;;;;2.28;1.15;;;24.60;70.60;;;;;;5105915;28;20024;-43
2021/07/14 11:13:50;;;;;;;1.98;1.30;;;24.70;70.60;;;;;;5105527;28;20047;-43
2021/07/14 11:16:29;;;;;;;1.33;1.13;;;24.70;70.70;;;;;;5105670;28;20028;-43
2021/07/14 11:19:09;;;;;;;2.00;1.17;;;24.70;70.70;;;;;;5105450;28;20024;-43
2021/07/14 11:21:53;;;;;;;1.73;1.10;;;24.60;70.70;;;;;;5105790;28;20017;-43
2021/07/14 11:24:39;;;;;;;3.05;1.10;;;24.60;70.70;;;;;;5105346;28;20036;-43
2021/07/14 11:27:26;;;;;;;1.30;1.20;;;24.60;70.70;;;;;;5105444;28;20012;-42
2021/07/14 11:30:04;;;;;;;1.55;1.02;;;24.60;70.60;;;;;;5105284;28;20091;-42
2021/07/14 11:32:38;;;;;;;1.45;1.30;;;24.60;70.70;;;;;;5105339;28;20040;-43
2021/07/14 11:35:15;;;;;;;1.83;1.30;;;24.60;70.70;;;;;;5105180;28;20032;-42
2021/07/14 11:38:02;;;;;;;2.00;1.25;;;24.60;70.70;;;;;;5105277;28;20063;-42
2021/07/14 11:40:41;;;;;;;2.45;1.35;;;24.60;70.70;;;;;;5105123;28;20023;-43
2021/07/14 11:43:10;;;;;;;2.47;1.20;;;24.60;70.70;;;;;;5104604;28;20171;-43
2021/07/14 11:45:43;;;;;;;1.55;1.23;;;24.60;70.80;;;;;;5104337;28;20032;-43
2021/07/14 11:48:15;;;;;;;1.77;1.20;;;24.60;70.80;;;;;;5105223;28;20117;-43
2021/07/14 11:50:52;;;;;;;1.40;1.30;;;24.50;70.70;;;;;;5104744;28;20041;-43
2021/07/14 11:56:32;;;;;;;1.30;1.17;;;24.50;70.70;;;;;;5105089;28;20028;-43
2021/07/14 11:59:05;;;;;;;3.85;1.30;;;24.50;70.80;;;;;;5104896;28;20024;-43
2021/07/14 12:01:31;;;;;;;1.42;1.33;;;24.50;70.80;;;;;;5105024;28;20043;-41
2021/07/14 12:04:07;;;;;;;2.38;1.05;;;24.50;70.90;;;;;;5104600;28;20081;-43
2021/07/14 12:06:57;;;;;;;3.20;1.30;;;24.50;70.80;;;;;;5104705;28;20042;-42
2021/07/14 12:09:25;;;;;;;2.08;1.10;;;24.50;70.80;;;;;;5090172;28;20038;-42
2021/07/14 12:11:59;;;;;;;3.33;1.30;;;24.50;70.90;;;;;;5104730;28;20024;-43
2021/07/14 12:14:30;;;;;;;1.45;1.20;;;24.50;70.80;;;;;;5104047;28;20059;-41
2021/07/14 12:17:01;;;;;;;1.35;1.25;;;24.50;70.80;;;;;;5086651;28;20028;-41
2021/07/14 12:19:54;;;;;;;1.92;1.15;;;24.50;70.80;;;;;;5104678;28;20028;-42
2021/07/14 12:22:27;;;;;;;1.63;1.40;;;24.50;70.90;;;;;;5104554;28;20098;-41
2021/07/14 12:24:56;;;;;;;1.10;1.00;;;24.50;70.90;;;;;;5103694;28;20032;-42
2021/07/14 12:27:29;;;;;;;1.90;1.30;;;24.50;70.80;;;;;;5104335;28;20432;-41
2021/07/14 12:30:00;;;;;;;1.40;1.30;;;24.50;70.80;;;;;;5104543;28;20027;-42
2021/07/14 12:32:29;;;;;;;1.15;1.00;;;24.50;70.80;;;;;;5085948;28;20036;-41
2021/07/14 12:34:55;;;;;;;1.10;1.00;;;24.50;70.90;;;;;;5103981;28;20031;-41
2021/07/14 12:37:21;;;;;;;1.55;1.23;;;24.50;70.90;;;;;;5104263;28;20020;-41
2021/07/14 12:39:47;;;;;;;1.20;1.10;;;24.50;70.90;;;;;;5092488;28;20076;-42
2021/07/14 12:42:17;;;;;;;1.67;1.10;;;24.50;70.80;;;;;;5099513;28;20504;-42
2021/07/14 12:44:45;;;;;;;1.27;1.17;;;24.50;70.90;;;;;;5083565;28;20033;-41
2021/07/14 12:47:22;;;;;;;1.30;1.20;;;24.50;70.90;;;;;;5083795;28;20020;-43
2021/07/14 12:49:50;;;;;;;1.67;1.20;;;24.50;70.90;;;;;;5083914;28;20032;-42
2021/07/14 12:52:20;;;;;;;1.50;1.33;;;24.50;70.90;;;;;;5083735;28;20084;-43
2021/07/14 12:54:48;;;;;;;1.45;1.25;;;24.50;70.90;;;;;;5083207;28;20050;-42
2021/07/14 12:57:28;;;;;;;1.50;1.38;;;24.50;70.90;;;;;;5083530;28;20027;-42
2021/07/14 13:00:16;;;;;;;1.45;1.10;;;24.50;70.80;;;;;;5103363;28;20163;-42
2021/07/14 13:02:58;;;;;;;2.03;1.23;;;24.50;70.80;;;;;;5103897;28;20027;-41
2021/07/14 13:05:26;;;;;;;1.50;1.17;;;24.60;70.90;;;;;;5071027;28;20488;-42
2021/07/14 13:07:58;;;;;;;1.35;0.90;;;24.60;70.90;;;;;;5068828;28;20876;-41
2021/07/14 13:10:25;;;;;;;1.35;1.13;;;24.60;70.90;;;;;;5103800;28;20032;-42
2021/07/14 13:12:55;;;;;;;1.38;1.10;;;24.60;71.00;;;;;;5103690;28;20024;-41